Time;durP1;ratioP1;P1;durP2;ratioP2;P2;SDS_P1;SDS_P2;PMS_P1;PMS_P2;Temp;Humidity;BMP_temperature;BMP_pressure;BME280_temperature;BME280_humidity;BME280_pressure;Samples;Min_cycle;Max_cycle;Signal;HPM_P1;HPM_P2
2022/08/12 00:44:57;;;;;;;3.13;2.92;;;26.60;99.90;;;;;;5032417;28;20025;-79
2022/08/12 00:47:23;;;;;;;4.05;3.50;;;26.70;99.90;;;;;;5032006;28;20040;-79
2022/08/12 00:49:49;;;;;;;3.40;3.10;;;26.70;99.90;;;;;;5032254;28;20072;-79
2022/08/12 00:52:18;;;;;;;3.40;3.15;;;26.60;99.90;;;;;;5031759;28;20053;-78
2022/08/12 00:54:45;;;;;;;5.35;3.00;;;26.60;99.90;;;;;;5031533;28;20053;-79
2022/08/12 00:57:14;;;;;;;3.15;2.92;;;26.60;99.90;;;;;;5032005;28;20035;-79
2022/08/12 00:59:58;;;;;;;3.35;3.05;;;26.50;99.90;;;;;;5032054;28;20029;-79
2022/08/12 01:02:35;;;;;;;3.50;3.20;;;26.40;99.90;;;;;;5030712;28;20055;-78
2022/08/12 01:13:27;;;;;;;3.40;3.10;;;26.40;99.90;;;;;;5031906;28;20032;-78
2022/08/12 01:16:04;;;;;;;4.53;3.08;;;26.40;99.90;;;;;;5032160;28;20029;-78
2022/08/12 01:18:33;;;;;;;3.88;3.03;;;26.40;99.90;;;;;;5031561;28;20025;-78
2022/08/12 01:21:32;;;;;;;3.70;3.42;;;26.40;99.90;;;;;;5031454;28;20122;-79
2022/08/12 01:23:57;;;;;;;3.05;2.85;;;26.20;99.90;;;;;;5030027;28;20064;-78
2022/08/12 01:26:24;;;;;;;3.30;3.00;;;26.10;99.90;;;;;;5031452;28;20391;-79
2022/08/12 01:28:57;;;;;;;3.28;3.03;;;26.10;99.90;;;;;;5031354;28;20049;-78
2022/08/12 01:31:25;;;;;;;3.95;3.20;;;26.10;99.90;;;;;;5031925;28;20021;-79
2022/08/12 01:34:05;;;;;;;3.50;3.20;;;26.10;99.90;;;;;;5031552;28;20042;-79
2022/08/12 01:36:56;;;;;;;3.80;2.92;;;26.10;99.90;;;;;;5031822;28;20067;-79
2022/08/12 01:39:28;;;;;;;6.55;3.10;;;26.10;99.90;;;;;;5022219;28;20064;-79
2022/08/12 01:42:04;;;;;;;3.25;2.95;;;26.10;99.90;;;;;;5035034;28;20048;-79
2022/08/12 01:44:32;;;;;;;3.45;3.15;;;26.00;99.90;;;;;;5035124;28;20034;-79
2022/08/12 01:47:38;;;;;;;2.97;2.78;;;26.00;99.90;;;;;;5035064;28;20029;-79
2022/08/12 01:50:30;;;;;;;4.25;3.20;;;25.90;99.90;;;;;;5035326;28;20022;-79
2022/08/12 01:53:04;;;;;;;3.33;3.03;;;25.80;99.90;;;;;;5034398;28;20025;-79
2022/08/12 01:55:33;;;;;;;3.78;3.08;;;25.80;99.90;;;;;;5035132;28;20032;-79
2022/08/12 01:58:19;;;;;;;3.28;3.08;;;25.80;99.90;;;;;;5034971;28;20458;-79
2022/08/12 02:01:11;;;;;;;3.30;2.97;;;25.80;99.90;;;;;;5034869;28;20025;-78
2022/08/12 02:13:06;;;;;;;3.47;3.20;;;25.70;99.90;;;;;;4954363;29;20420;-79
2022/08/12 02:16:12;;;;;;;5.75;3.22;;;25.60;99.90;;;;;;4954366;29;20027;-79
2022/08/12 02:19:02;;;;;;;3.30;3.00;;;25.60;99.90;;;;;;4878678;29;20049;-79
2022/08/12 02:21:45;;;;;;;3.58;3.22;;;25.60;99.90;;;;;;4877969;29;20049;-79
2022/08/12 02:24:17;;;;;;;5.53;3.28;;;25.50;99.90;;;;;;4878710;29;20526;-79
2022/08/12 02:26:47;;;;;;;3.10;2.83;;;25.50;99.90;;;;;;4878159;29;20053;-79
2022/08/12 02:29:13;;;;;;;5.10;3.05;;;25.50;99.90;;;;;;4888004;29;20510;-79
2022/08/12 02:31:41;;;;;;;3.55;3.10;;;25.40;99.90;;;;;;4896887;29;20088;-79
2022/08/12 02:34:11;;;;;;;4.20;2.97;;;25.40;99.90;;;;;;4896863;29;20040;-79
2022/08/12 02:36:38;;;;;;;3.60;3.30;;;25.10;99.90;;;;;;4896429;29;20044;-79
2022/08/12 02:39:07;;;;;;;5.50;3.15;;;24.90;99.90;;;;;;4896773;29;20044;-79
2022/08/12 02:41:35;;;;;;;5.10;3.30;;;24.90;99.90;;;;;;4896611;29;20127;-79
2022/08/12 02:44:07;;;;;;;4.05;3.65;;;24.70;99.90;;;;;;4948568;28;20458;-79
2022/08/12 02:46:34;;;;;;;3.15;2.92;;;24.50;99.90;;;;;;4972916;28;20066;-78
2022/08/12 02:49:05;;;;;;;3.50;3.20;;;24.70;1.00;;;;;;4972885;28;20031;-79
2022/08/12 02:51:33;;;;;;;3.97;3.38;;;24.50;99.90;;;;;;4976076;28;20062;-79
2022/08/12 02:54:02;;;;;;;3.78;2.85;;;24.40;99.90;;;;;;5014344;28;20032;-79
2022/08/12 02:56:29;;;;;;;3.72;3.08;;;24.40;99.90;;;;;;5014247;28;20014;-79
2022/08/12 02:58:59;;;;;;;3.65;3.35;;;24.50;99.90;;;;;;5013719;28;20026;-79
2022/08/12 03:01:32;;;;;;;3.60;3.30;;;24.20;99.90;;;;;;5014062;28;20438;-79
2022/08/12 03:04:08;;;;;;;3.30;3.00;;;24.10;99.90;;;;;;5013614;28;20029;-79
2022/08/12 03:06:41;;;;;;;4.63;3.30;;;24.40;99.90;;;;;;5013897;28;20034;-78
2022/08/12 03:09:13;;;;;;;3.60;3.30;;;24.30;1.00;;;;;;5013730;28;20482;-79
2022/08/12 03:11:49;;;;;;;3.47;3.05;;;24.20;99.90;;;;;;5013543;28;20399;-79
2022/08/12 03:14:19;;;;;;;3.53;3.22;;;24.40;99.90;;;;;;5013679;28;20026;-79
2022/08/12 03:16:56;;;;;;;6.72;3.20;;;24.40;99.90;;;;;;5013676;28;20451;-79
2022/08/12 03:19:23;;;;;;;3.50;3.30;;;24.10;99.90;;;;;;5013505;28;20029;-79
2022/08/12 03:21:55;;;;;;;3.55;3.25;;;23.90;99.90;;;;;;5013050;28;20038;-79
2022/08/12 03:24:24;;;;;;;3.53;3.22;;;24.10;99.90;;;;;;5013430;28;20037;-79
2022/08/12 03:26:53;;;;;;;3.50;3.20;;;24.10;99.90;;;;;;5013628;28;20087;-78
2022/08/12 03:29:29;;;;;;;3.20;2.90;;;23.90;99.90;;;;;;5024723;28;20036;-79
2022/08/12 03:31:59;;;;;;;3.45;3.15;;;23.90;99.90;;;;;;5032990;28;20017;-78
2022/08/12 03:34:28;;;;;;;3.67;3.38;;;24.00;99.90;;;;;;5032553;28;20029;-79
2022/08/12 03:36:57;;;;;;;3.38;3.08;;;23.80;1.00;;;;;;5033275;28;20045;-78
2022/08/12 03:42:33;;;;;;;3.65;3.35;;;23.40;1.00;;;;;;5032764;28;20052;-79
2022/08/12 04:01:56;;;;;;;3.90;3.20;;;23.10;1.00;;;;;;5032381;28;20166;-78
2022/08/12 04:04:24;;;;;;;3.97;3.58;;;23.20;1.00;;;;;;5031713;28;20503;-78
2022/08/12 04:06:51;;;;;;;4.68;3.70;;;23.30;1.00;;;;;;5032801;28;20025;-79
2022/08/12 04:09:20;;;;;;;3.95;3.55;;;23.30;1.00;;;;;;5032426;28;20056;-78
2022/08/12 04:14:30;;;;;;;3.90;3.50;;;22.90;1.00;;;;;;5032422;28;20036;-78
2022/08/12 04:16:56;;;;;;;4.72;3.55;;;23.00;1.00;;;;;;5032190;28;20024;-79
2022/08/12 04:19:23;;;;;;;3.72;3.42;;;22.90;1.00;;;;;;5030544;28;20041;-79
2022/08/12 04:21:49;;;;;;;4.88;3.85;;;22.80;1.00;;;;;;5032552;28;20042;-78
2022/08/12 04:24:17;;;;;;;4.03;3.55;;;22.80;1.00;;;;;;5032093;28;20049;-79
2022/08/12 04:26:42;;;;;;;5.55;4.05;;;22.80;1.00;;;;;;5030970;28;20045;-78
2022/08/12 04:29:09;;;;;;;5.60;3.80;;;22.80;1.00;;;;;;5032295;28;20099;-79
2022/08/12 04:31:38;;;;;;;4.22;3.50;;;22.80;1.00;;;;;;5031930;28;20075;-78
2022/08/12 04:34:08;;;;;;;4.25;3.75;;;22.70;1.00;;;;;;5031740;28;20025;-78
2022/08/12 04:36:38;;;;;;;6.22;3.65;;;22.80;1.00;;;;;;5032116;28;20025;-79
2022/08/12 04:39:06;;;;;;;3.92;3.53;;;22.90;1.00;;;;;;5032134;28;20083;-78
2022/08/12 04:41:32;;;;;;;4.80;3.58;;;22.90;1.00;;;;;;5031962;28;20069;-78
2022/08/12 04:43:58;;;;;;;4.13;3.75;;;22.70;1.00;;;;;;5032096;28;20096;-78
2022/08/12 04:46:25;;;;;;;3.95;3.38;;;22.70;1.00;;;;;;5032294;28;20061;-78
2022/08/12 04:48:51;;;;;;;4.82;3.67;;;22.60;1.00;;;;;;5031731;28;20025;-78
2022/08/12 04:51:19;;;;;;;3.85;3.50;;;22.70;1.00;;;;;;5031949;28;20065;-78
2022/08/12 04:53:46;;;;;;;4.00;3.55;;;22.60;1.00;;;;;;5031920;28;20076;-78
2022/08/12 04:56:12;;;;;;;4.30;3.70;;;22.60;1.00;;;;;;5031936;28;20025;-78
2022/08/12 04:58:38;;;;;;;3.78;3.40;;;22.70;1.00;;;;;;5032443;28;20175;-79
2022/08/12 05:01:05;;;;;;;3.83;3.53;;;22.60;1.00;;;;;;5031532;28;20042;-78
2022/08/12 05:03:31;;;;;;;4.60;4.20;;;22.60;1.00;;;;;;5031584;28;20084;-78
2022/08/12 05:05:57;;;;;;;5.10;3.65;;;22.60;1.00;;;;;;5031795;28;20544;-79
2022/08/12 05:08:25;;;;;;;5.65;3.47;;;22.80;1.00;;;;;;5032318;28;20109;-78
2022/08/12 05:10:52;;;;;;;3.97;3.63;;;22.70;1.00;;;;;;5031702;28;20033;-78
2022/08/12 05:13:37;;;;;;;6.57;3.80;;;22.70;1.00;;;;;;5031757;28;20025;-78
2022/08/12 05:16:05;;;;;;;5.82;3.60;;;22.70;1.00;;;;;;5033858;28;20045;-78
2022/08/12 05:18:36;;;;;;;4.10;3.75;;;22.70;1.00;;;;;;5035802;28;20029;-79
2022/08/12 05:21:03;;;;;;;4.60;3.85;;;22.60;1.00;;;;;;5035337;28;20049;-78
2022/08/12 05:23:32;;;;;;;4.78;3.80;;;22.70;1.00;;;;;;5035375;28;20513;-78
2022/08/12 05:25:59;;;;;;;4.00;3.70;;;22.80;1.00;;;;;;5035329;28;20053;-79
2022/08/12 05:28:26;;;;;;;4.00;3.70;;;22.80;1.00;;;;;;5035295;28;20445;-78
2022/08/12 05:30:52;;;;;;;4.10;3.58;;;23.00;1.00;;;;;;5034846;28;20486;-78
2022/08/12 05:33:18;;;;;;;5.07;3.75;;;23.00;1.00;;;;;;5035329;28;20531;-79
2022/08/12 05:35:46;;;;;;;4.60;4.15;;;23.00;1.00;;;;;;5035533;28;20053;-79
2022/08/12 05:41:00;;;;;;;5.03;4.30;;;22.90;1.00;;;;;;5035106;28;20122;-78
2022/08/12 05:43:26;;;;;;;4.55;4.15;;;22.90;1.00;;;;;;5035094;28;20101;-78
2022/08/12 05:45:52;;;;;;;4.18;3.85;;;23.00;1.00;;;;;;5034805;28;20112;-78
2022/08/12 05:48:18;;;;;;;3.97;3.63;;;23.00;1.00;;;;;;5034927;28;20462;-79
2022/08/12 05:50:44;;;;;;;4.07;3.70;;;23.10;1.00;;;;;;5034803;28;20096;-79
2022/08/12 05:53:11;;;;;;;5.63;4.05;;;23.30;1.00;;;;;;5034977;28;20022;-78
2022/08/12 05:55:36;;;;;;;5.72;4.05;;;23.30;1.00;;;;;;5035229;28;20451;-79
2022/08/12 05:58:04;;;;;;;5.60;3.90;;;23.20;1.00;;;;;;5034745;28;20057;-79
2022/08/12 06:00:30;;;;;;;4.40;4.00;;;23.10;1.00;;;;;;5034421;28;20033;-78
2022/08/12 06:03:01;;;;;;;5.57;4.35;;;23.30;1.00;;;;;;5034683;28;20052;-78
2022/08/12 06:05:33;;;;;;;5.35;4.03;;;23.40;1.00;;;;;;5034675;28;20035;-79
2022/08/12 06:08:01;;;;;;;5.85;4.10;;;23.50;1.00;;;;;;5034641;28;20435;-79
2022/08/12 06:10:28;;;;;;;5.28;4.47;;;23.50;1.00;;;;;;5034999;28;20041;-78
2022/08/12 06:12:56;;;;;;;5.07;3.97;;;23.50;1.00;;;;;;5034648;28;20096;-78
2022/08/12 06:15:21;;;;;;;4.80;4.18;;;23.60;1.00;;;;;;5034274;28;20029;-79
2022/08/12 06:17:47;;;;;;;4.40;4.00;;;23.70;1.00;;;;;;5034269;28;20028;-78
2022/08/12 06:20:15;;;;;;;6.55;4.43;;;23.80;1.00;;;;;;5034363;28;20429;-78
2022/08/12 06:22:42;;;;;;;4.30;3.90;;;23.80;1.00;;;;;;5034468;28;20052;-78
2022/08/12 06:25:08;;;;;;;4.97;3.92;;;23.90;1.00;;;;;;5034292;28;20417;-79
2022/08/12 06:27:42;;;;;;;5.88;4.15;;;24.00;1.00;;;;;;5034025;28;20049;-78
2022/08/12 06:30:09;;;;;;;4.18;3.78;;;24.10;1.00;;;;;;5033906;28;20036;-78
2022/08/12 06:32:35;;;;;;;4.40;4.00;;;24.20;1.00;;;;;;5034105;28;20497;-78
2022/08/12 06:35:02;;;;;;;6.30;4.15;;;24.20;1.00;;;;;;5034098;28;20230;-79
2022/08/12 06:37:27;;;;;;;6.15;3.95;;;24.40;1.00;;;;;;5034187;28;20067;-79
2022/08/12 06:39:53;;;;;;;9.40;4.60;;;24.50;1.00;;;;;;5034062;28;20041;-78
2022/08/12 06:45:14;;;;;;;4.90;4.40;;;24.60;1.00;;;;;;5020721;28;20037;-79
2022/08/12 06:47:40;;;;;;;5.32;4.47;;;24.70;1.00;;;;;;5034228;28;20053;-79
2022/08/12 06:50:07;;;;;;;7.45;4.43;;;24.90;1.00;;;;;;5033784;28;20359;-78
2022/08/12 06:52:32;;;;;;;8.90;4.97;;;24.90;1.00;;;;;;5033769;28;20112;-79
2022/08/12 06:54:58;;;;;;;6.30;5.15;;;25.00;1.00;;;;;;5033714;28;20097;-79
2022/08/12 06:57:26;;;;;;;6.53;5.40;;;25.10;1.00;;;;;;5033894;28;20592;-79
2022/08/12 06:59:53;;;;;;;6.53;5.60;;;25.20;1.00;;;;;;5033446;28;20018;-78
2022/08/12 07:02:21;;;;;;;9.77;5.95;;;25.20;1.00;;;;;;5033567;28;20033;-78
2022/08/12 07:04:51;;;;;;;5.70;5.20;;;25.40;1.00;;;;;;5033970;28;20447;-78
2022/08/12 07:07:17;;;;;;;5.20;4.80;;;25.50;1.00;;;;;;5033714;28;20042;-79
2022/08/12 07:09:43;;;;;;;5.97;5.22;;;25.60;1.00;;;;;;5033473;28;20053;-78
2022/08/12 07:12:17;;;;;;;6.20;5.03;;;25.80;1.00;;;;;;5033037;28;20025;-79
2022/08/12 07:14:43;;;;;;;8.02;5.45;;;25.80;1.00;;;;;;5033744;28;20108;-79
2022/08/12 07:17:08;;;;;;;7.97;5.82;;;25.80;1.00;;;;;;5033165;28;20105;-78
2022/08/12 07:19:35;;;;;;;5.55;5.05;;;25.90;1.00;;;;;;5033331;28;20029;-79
2022/08/12 07:22:05;;;;;;;6.07;5.05;;;26.10;1.00;;;;;;5033164;28;20037;-78
2022/08/12 07:24:31;;;;;;;6.22;5.07;;;26.10;1.00;;;;;;5033168;28;20091;-79
2022/08/12 07:26:57;;;;;;;5.68;5.07;;;26.20;1.00;;;;;;5032827;28;20207;-78
2022/08/12 07:29:24;;;;;;;6.30;5.25;;;26.20;1.00;;;;;;5033033;28;20032;-79
2022/08/12 07:31:51;;;;;;;6.47;4.78;;;26.10;1.00;;;;;;5033013;28;20030;-78
2022/08/12 07:34:17;;;;;;;5.70;5.20;;;26.10;1.00;;;;;;5032816;28;20025;-79
2022/08/12 07:36:44;;;;;;;7.28;5.63;;;26.30;1.00;;;;;;5032952;28;20360;-79
2022/08/12 07:39:12;;;;;;;6.60;5.07;;;26.30;1.00;;;;;;5032239;28;20079;-79
2022/08/12 07:41:38;;;;;;;5.72;5.13;;;26.40;1.00;;;;;;5032563;28;20037;-79
2022/08/12 07:44:06;;;;;;;6.05;5.20;;;26.50;1.00;;;;;;5032867;28;20025;-79
2022/08/12 07:46:39;;;;;;;6.38;5.10;;;26.60;1.00;;;;;;5032776;28;20033;-78
2022/08/12 07:49:11;;;;;;;5.78;5.18;;;26.70;1.00;;;;;;5032681;28;20029;-79
2022/08/12 07:51:38;;;;;;;6.15;5.60;;;26.70;1.00;;;;;;5033044;28;20034;-79
2022/08/12 07:54:08;;;;;;;5.75;5.15;;;26.70;1.00;;;;;;5032716;28;20093;-79
2022/08/12 07:56:36;;;;;;;5.18;4.75;;;26.80;1.00;;;;;;5032341;28;20029;-79
2022/08/12 07:59:02;;;;;;;5.90;5.30;;;26.80;1.00;;;;;;5032517;28;20037;-79
2022/08/12 08:01:29;;;;;;;5.38;4.93;;;27.00;1.00;;;;;;5032741;28;20037;-79
2022/08/12 08:06:41;;;;;;;5.72;5.07;;;27.20;1.00;;;;;;5032996;28;20040;-79
2022/08/12 08:09:08;;;;;;;5.63;5.13;;;27.20;1.00;;;;;;5032349;28;20060;-78
2022/08/12 08:14:19;;;;;;;5.30;4.90;;;27.20;1.00;;;;;;5032878;28;20440;-78
2022/08/12 08:16:47;;;;;;;5.13;4.57;;;27.30;1.00;;;;;;5032140;28;20042;-79
2022/08/12 08:19:22;;;;;;;4.55;4.15;;;27.40;1.00;;;;;;5032197;28;20033;-79
2022/08/12 08:21:53;;;;;;;5.55;4.80;;;27.60;1.00;;;;;;5032220;28;20067;-78
2022/08/12 08:24:23;;;;;;;4.90;4.40;;;27.70;1.00;;;;;;5031728;28;20025;-79
2022/08/12 08:26:50;;;;;;;4.97;4.43;;;27.70;1.00;;;;;;5032012;28;20064;-79
2022/08/12 08:29:17;;;;;;;5.25;4.70;;;27.80;1.00;;;;;;5032084;28;20025;-79
2022/08/12 08:31:49;;;;;;;5.85;4.80;;;27.80;1.00;;;;;;5032217;28;20033;-79
2022/08/12 08:34:16;;;;;;;5.15;4.75;;;28.00;1.00;;;;;;5032568;28;20231;-79
2022/08/12 08:36:42;;;;;;;4.90;4.43;;;27.80;1.00;;;;;;5032201;28;20029;-79
2022/08/12 08:39:09;;;;;;;4.60;4.20;;;27.80;1.00;;;;;;5031644;28;20036;-79
2022/08/12 08:44:20;;;;;;;5.00;4.38;;;27.80;1.00;;;;;;5032726;28;20035;-79
2022/08/12 08:46:48;;;;;;;6.05;4.22;;;28.00;1.00;;;;;;5032052;28;20025;-79
2022/08/12 08:49:14;;;;;;;3.80;3.50;;;28.20;1.00;;;;;;5033284;28;20071;-79
2022/08/12 08:51:41;;;;;;;4.40;4.00;;;28.20;1.00;;;;;;5036032;28;20276;-79
2022/08/12 08:54:10;;;;;;;4.40;3.95;;;28.30;1.00;;;;;;5034262;28;20387;-79
2022/08/12 08:56:43;;;;;;;4.07;3.60;;;28.20;1.00;;;;;;5036124;28;20061;-79
2022/08/12 08:59:12;;;;;;;4.72;4.32;;;28.30;1.00;;;;;;5035779;28;20474;-79
2022/08/12 09:01:39;;;;;;;6.45;4.13;;;28.50;1.00;;;;;;5036041;28;20041;-79
2022/08/12 09:04:06;;;;;;;4.07;3.67;;;28.60;1.00;;;;;;5035886;28;20026;-78
2022/08/12 09:06:32;;;;;;;4.88;4.30;;;28.50;1.00;;;;;;5035714;28;20083;-79
2022/08/12 09:08:57;;;;;;;6.75;4.25;;;28.60;1.00;;;;;;5035407;28;20471;-79
2022/08/12 09:14:08;;;;;;;4.72;4.30;;;28.50;1.00;;;;;;5036229;28;20076;-79
2022/08/12 09:16:37;;;;;;;6.75;4.57;;;28.50;1.00;;;;;;5035653;28;20068;-79
2022/08/12 09:19:04;;;;;;;4.55;4.25;;;28.60;1.00;;;;;;5035410;28;20091;-79
2022/08/12 09:21:31;;;;;;;4.60;4.20;;;28.90;99.90;;;;;;5035155;28;20083;-78
2022/08/12 09:23:59;;;;;;;5.95;4.32;;;28.60;1.00;;;;;;5035173;28;20406;-79
2022/08/12 09:26:26;;;;;;;6.38;4.30;;;28.80;99.90;;;;;;5035140;28;20049;-79
2022/08/12 09:28:52;;;;;;;4.82;4.40;;;28.80;99.90;;;;;;5035314;28;20116;-79
2022/08/12 09:31:17;;;;;;;5.60;4.20;;;28.90;99.90;;;;;;5035786;28;20100;-79
2022/08/12 09:33:43;;;;;;;4.50;4.10;;;29.10;1.00;;;;;;5035506;28;20033;-79
2022/08/12 09:36:09;;;;;;;6.00;4.35;;;29.10;99.90;;;;;;5035228;28;20036;-79
2022/08/12 09:38:34;;;;;;;6.60;4.30;;;29.00;99.90;;;;;;5034864;28;20390;-79
2022/08/12 09:41:00;;;;;;;4.57;4.18;;;29.20;99.90;;;;;;5035315;28;20030;-79
2022/08/12 09:46:16;;;;;;;9.02;4.13;;;29.50;99.90;;;;;;5035418;28;20040;-79
2022/08/12 09:48:43;;;;;;;4.90;4.47;;;29.60;99.90;;;;;;5035105;28;20109;-79
2022/08/12 09:51:11;;;;;;;4.68;4.25;;;29.50;99.90;;;;;;5034346;28;20025;-78
2022/08/12 09:53:38;;;;;;;4.60;4.30;;;29.60;99.90;;;;;;5035007;28;20088;-79
2022/08/12 09:56:05;;;;;;;5.05;4.22;;;29.60;99.90;;;;;;5035312;28;20104;-79
2022/08/12 09:58:31;;;;;;;4.72;4.32;;;29.80;99.90;;;;;;5033851;28;20084;-78
2022/08/12 10:01:03;;;;;;;5.53;4.60;;;29.90;99.90;;;;;;5033831;28;20139;-79
2022/08/12 10:03:33;;;;;;;4.55;4.10;;;29.80;99.90;;;;;;5034815;28;20025;-79
2022/08/12 10:06:00;;;;;;;4.95;4.40;;;29.90;99.90;;;;;;5034718;28;20508;-79
2022/08/12 10:08:29;;;;;;;6.10;4.45;;;30.00;99.90;;;;;;5034604;28;20025;-79
2022/08/12 10:13:43;;;;;;;6.90;5.00;;;29.70;99.90;;;;;;5034445;28;20078;-79
2022/08/12 10:16:17;;;;;;;10.05;7.75;;;30.00;99.90;;;;;;5034615;28;20044;-79
2022/08/12 10:18:55;;;;;;;8.70;7.28;;;30.10;99.90;;;;;;5034307;28;20163;-79
2022/08/12 10:21:30;;;;;;;8.40;7.20;;;30.20;99.90;;;;;;5033967;28;20036;-79
2022/08/12 10:23:56;;;;;;;5.97;5.47;;;30.10;99.90;;;;;;5034425;28;20021;-79
2022/08/12 10:31:54;;;;;;;5.10;4.60;;;30.50;99.90;;;;;;5034457;28;20099;-79
2022/08/12 10:34:23;;;;;;;5.97;4.75;;;30.80;99.90;;;;;;5034528;28;20138;-79
2022/08/12 10:37:00;;;;;;;5.78;5.03;;;30.80;99.90;;;;;;5034183;28;20446;-79
2022/08/12 10:39:33;;;;;;;5.97;4.93;;;30.80;99.90;;;;;;5034102;28;20021;-79
2022/08/12 10:44:45;;;;;;;5.50;4.70;;;30.90;99.90;;;;;;5034318;28;20116;-79
2022/08/12 10:47:11;;;;;;;4.82;4.43;;;31.40;99.90;;;;;;5034152;28;20105;-79
2022/08/12 10:49:37;;;;;;;4.70;3.53;;;31.70;1.00;;;;;;5033649;28;20029;-79
2022/08/12 10:52:06;;;;;;;4.72;4.10;;;32.10;99.90;;;;;;5033861;28;20028;-79
2022/08/12 10:54:32;;;;;;;4.30;3.88;;;33.30;99.90;;;;;;5033739;28;20055;-79
2022/08/12 10:56:59;;;;;;;4.43;3.92;;;36.40;99.90;;;;;;5034064;28;20026;-79
2022/08/12 10:59:28;;;;;;;3.97;3.58;;;39.50;99.90;;;;;;5033659;28;20064;-79
2022/08/12 11:01:58;;;;;;;4.13;3.60;;;41.40;99.90;;;;;;5033573;28;20040;-79
2022/08/12 11:04:28;;;;;;;3.97;3.67;;;41.60;99.90;;;;;;5033230;28;20021;-79
2022/08/12 11:06:55;;;;;;;4.30;3.90;;;42.50;99.90;;;;;;5033519;28;20026;-79
2022/08/12 11:09:23;;;;;;;4.30;3.85;;;44.30;99.90;;;;;;5033591;28;20029;-79
2022/08/12 11:11:49;;;;;;;3.90;3.60;;;44.20;99.90;;;;;;5033368;28;20091;-79
2022/08/12 11:14:16;;;;;;;3.65;3.45;;;45.50;99.90;;;;;;5032598;28;20033;-80
2022/08/12 11:16:45;;;;;;;7.28;3.70;;;45.70;99.90;;;;;;5033378;28;20494;-80
2022/08/12 11:19:11;;;;;;;4.63;3.67;;;45.70;99.90;;;;;;5032772;28;20061;-80
2022/08/12 11:21:38;;;;;;;5.43;3.88;;;46.00;99.90;;;;;;5033161;28;20037;-80
2022/08/12 11:24:04;;;;;;;4.10;3.60;;;47.10;99.90;;;;;;5033473;28;20021;-80
2022/08/12 11:26:30;;;;;;;3.67;3.38;;;45.80;99.90;;;;;;5033259;28;20124;-80
2022/08/12 11:28:56;;;;;;;4.20;3.75;;;47.70;99.90;;;;;;5032951;28;20148;-80
2022/08/12 11:31:22;;;;;;;4.07;3.78;;;47.20;99.90;;;;;;5033039;28;20040;-80
2022/08/12 11:33:48;;;;;;;3.70;3.40;;;48.50;99.90;;;;;;5032620;28;20034;-80
2022/08/12 11:36:14;;;;;;;4.53;3.70;;;48.20;99.90;;;;;;5032928;28;20572;-80
2022/08/12 11:38:40;;;;;;;6.05;3.60;;;47.60;99.90;;;;;;5033061;28;20037;-80
2022/08/12 11:41:06;;;;;;;4.32;3.33;;;49.10;99.90;;;;;;5032723;28;20520;-80
2022/08/12 11:43:32;;;;;;;4.00;3.38;;;49.30;99.90;;;;;;5032838;28;20029;-80
2022/08/12 11:45:59;;;;;;;4.32;3.20;;;50.50;99.90;;;;;;5033144;28;20034;-80
2022/08/12 11:48:25;;;;;;;3.05;2.70;;;50.20;99.90;;;;;;5032495;28;20083;-80
2022/08/12 11:50:51;;;;;;;2.83;2.30;;;49.90;99.90;;;;;;5032758;28;20497;-80
2022/08/12 11:53:16;;;;;;;3.58;2.65;;;49.70;99.90;;;;;;5032669;28;20061;-80
2022/08/12 11:55:42;;;;;;;3.45;2.47;;;50.00;99.90;;;;;;5033137;28;20081;-80
2022/08/12 11:58:08;;;;;;;4.18;2.80;;;50.60;99.90;;;;;;5032617;28;20124;-80
2022/08/12 12:00:33;;;;;;;4.00;2.50;;;49.00;99.90;;;;;;5032372;28;20025;-80
2022/08/12 12:02:59;;;;;;;2.95;2.40;;;48.80;99.90;;;;;;5032216;28;20111;-80
2022/08/12 12:05:24;;;;;;;3.47;2.70;;;48.80;99.90;;;;;;5033056;28;20069;-80
2022/08/12 12:07:50;;;;;;;3.08;2.78;;;49.50;99.90;;;;;;5032500;28;20493;-80
2022/08/12 12:10:18;;;;;;;3.97;3.00;;;48.30;99.90;;;;;;5032345;28;20025;-80
2022/08/12 12:12:44;;;;;;;3.30;3.00;;;49.30;99.90;;;;;;5032676;28;20033;-80
2022/08/12 12:15:10;;;;;;;4.70;2.80;;;48.60;99.90;;;;;;5032279;28;20049;-80
2022/08/12 12:17:37;;;;;;;4.88;2.92;;;48.10;99.90;;;;;;5032271;28;20068;-80
2022/08/12 12:20:07;;;;;;;3.20;2.70;;;48.90;99.90;;;;;;5031893;28;20021;-80
2022/08/12 12:22:33;;;;;;;4.50;2.65;;;48.40;99.90;;;;;;5032789;28;20032;-80
2022/08/12 12:24:59;;;;;;;3.97;2.90;;;47.90;99.90;;;;;;5031841;28;20033;-80
2022/08/12 12:27:24;;;;;;;2.70;2.50;;;48.30;99.90;;;;;;5031920;28;20439;-80
2022/08/12 12:29:50;;;;;;;4.68;2.60;;;49.40;99.90;;;;;;5031937;28;20135;-80
2022/08/12 12:32:15;;;;;;;2.22;2.10;;;50.50;99.90;;;;;;5031753;28;20033;-80
2022/08/12 12:34:41;;;;;;;2.88;2.50;;;49.90;99.90;;;;;;5032286;28;20108;-80
2022/08/12 12:37:11;;;;;;;4.75;2.45;;;49.60;99.90;;;;;;5032318;28;20037;-80
2022/08/12 12:39:38;;;;;;;5.00;2.30;;;49.00;99.90;;;;;;5032216;28;20021;-80
2022/08/12 12:42:04;;;;;;;2.78;2.20;;;49.10;99.90;;;;;;5032121;28;20043;-80
2022/08/12 12:44:30;;;;;;;2.45;2.17;;;49.70;99.90;;;;;;5031999;28;20033;-80
2022/08/12 12:46:55;;;;;;;2.20;2.10;;;49.20;99.90;;;;;;5031705;28;20017;-80
2022/08/12 12:49:21;;;;;;;4.03;2.40;;;48.90;99.90;;;;;;5032428;28;20033;-80
2022/08/12 12:51:47;;;;;;;3.60;2.15;;;48.90;99.90;;;;;;5031839;28;20475;-80
2022/08/12 12:54:12;;;;;;;2.35;1.83;;;49.00;99.90;;;;;;5031936;28;20033;-80
2022/08/12 12:56:40;;;;;;;2.40;2.20;;;49.70;99.90;;;;;;5031994;28;20072;-80
2022/08/12 12:59:07;;;;;;;3.38;2.78;;;48.80;99.90;;;;;;5031767;28;20026;-80
2022/08/12 13:01:34;;;;;;;2.35;2.25;;;48.50;99.90;;;;;;5031402;28;20116;-80
2022/08/12 13:04:00;;;;;;;3.75;2.58;;;49.10;99.90;;;;;;5031750;28;20073;-80
2022/08/12 13:06:28;;;;;;;4.95;2.33;;;47.90;99.90;;;;;;5032225;28;20083;-80
2022/08/12 13:09:00;;;;;;;3.25;2.60;;;48.30;99.90;;;;;;5031792;28;20026;-80
2022/08/12 13:11:28;;;;;;;3.15;2.45;;;47.20;99.90;;;;;;5031759;28;20076;-80
2022/08/12 13:13:55;;;;;;;2.83;2.58;;;47.40;99.90;;;;;;5031726;28;20021;-80
2022/08/12 13:16:21;;;;;;;2.92;2.70;;;46.90;99.90;;;;;;5031301;28;20051;-80
2022/08/12 13:18:48;;;;;;;4.97;2.50;;;46.70;99.90;;;;;;5031589;28;20026;-80
2022/08/12 13:21:16;;;;;;;3.17;2.60;;;46.70;99.90;;;;;;5031615;28;20045;-80
2022/08/12 13:23:46;;;;;;;4.88;2.60;;;46.80;99.90;;;;;;5031656;28;20542;-80
2022/08/12 13:26:16;;;;;;;2.95;2.60;;;47.00;99.90;;;;;;5031463;28;20052;-80
2022/08/12 13:28:48;;;;;;;4.22;2.60;;;46.10;99.90;;;;;;5031054;28;20394;-80
2022/08/12 13:31:16;;;;;;;2.47;2.30;;;46.40;99.90;;;;;;5031937;28;20029;-80
2022/08/12 13:33:42;;;;;;;2.83;2.30;;;46.30;99.90;;;;;;5031588;28;20068;-80
2022/08/12 13:36:09;;;;;;;3.95;2.40;;;45.50;99.90;;;;;;5032692;28;20076;-80
2022/08/12 13:38:37;;;;;;;2.97;2.55;;;43.80;99.90;;;;;;5035344;28;20040;-80
2022/08/12 13:41:07;;;;;;;3.28;2.30;;;44.10;99.90;;;;;;5035050;28;20098;-80
2022/08/12 13:43:33;;;;;;;2.60;2.40;;;44.80;99.90;;;;;;5034782;28;20029;-80
2022/08/12 13:46:00;;;;;;;3.20;2.20;;;44.80;99.90;;;;;;5035143;28;20386;-80
2022/08/12 13:48:25;;;;;;;3.97;2.40;;;45.10;99.90;;;;;;5035159;28;20018;-80
2022/08/12 13:50:51;;;;;;;4.43;2.28;;;45.10;99.90;;;;;;5035096;28;20028;-80
2022/08/12 13:53:18;;;;;;;4.30;2.53;;;45.30;99.90;;;;;;5034943;28;20115;-80
2022/08/12 13:55:46;;;;;;;2.30;2.10;;;44.00;99.90;;;;;;5034803;28;20028;-80
2022/08/12 13:58:17;;;;;;;3.05;2.47;;;44.00;99.90;;;;;;5034361;28;20155;-80
2022/08/12 14:00:44;;;;;;;3.45;2.30;;;42.90;99.90;;;;;;5035175;28;20030;-80
2022/08/12 14:03:13;;;;;;;2.30;2.10;;;43.60;99.90;;;;;;5034298;28;20389;-80
2022/08/12 14:05:39;;;;;;;4.95;2.30;;;44.50;99.90;;;;;;5034699;28;20026;-80
2022/08/12 14:08:06;;;;;;;3.95;2.35;;;44.70;99.90;;;;;;5034773;28;20025;-80
2022/08/12 14:10:52;;;;;;;3.10;2.47;;;44.10;99.90;;;;;;5035028;28;20021;-80
2022/08/12 14:13:25;;;;;;;4.78;2.50;;;44.00;99.90;;;;;;5034586;28;20371;-79
2022/08/12 14:15:56;;;;;;;2.58;2.38;;;44.00;99.90;;;;;;5034522;28;20033;-80
2022/08/12 14:18:33;;;;;;;4.15;2.60;;;44.40;99.90;;;;;;5034229;28;20588;-80
2022/08/12 14:21:02;;;;;;;3.17;2.40;;;44.10;99.90;;;;;;5034841;28;20052;-80
2022/08/12 14:23:33;;;;;;;2.38;2.20;;;43.60;99.90;;;;;;5034433;28;20030;-79
2022/08/12 14:26:00;;;;;;;3.40;2.33;;;43.70;99.90;;;;;;5034066;28;20508;-79
2022/08/12 14:28:29;;;;;;;4.22;2.60;;;44.00;99.90;;;;;;5033842;28;20389;-80
2022/08/12 14:30:59;;;;;;;7.63;2.40;;;44.40;99.90;;;;;;5034163;28;20021;-80
2022/08/12 14:33:33;;;;;;;5.72;2.25;;;43.80;99.90;;;;;;5034140;28;20029;-79
2022/08/12 14:36:01;;;;;;;2.60;2.40;;;43.80;99.90;;;;;;5034240;28;20466;-80
2022/08/12 14:38:29;;;;;;;4.63;2.33;;;42.80;99.90;;;;;;5034067;28;20029;-80
2022/08/12 14:41:01;;;;;;;2.65;2.45;;;42.60;99.90;;;;;;5034054;28;20030;-80
2022/08/12 14:43:32;;;;;;;3.78;2.80;;;43.40;99.90;;;;;;5033699;28;20029;-79
2022/08/12 14:46:06;;;;;;;3.50;2.13;;;43.60;99.90;;;;;;5033961;28;20026;-80
2022/08/12 14:48:32;;;;;;;3.00;2.30;;;42.80;99.90;;;;;;5034179;28;20502;-80
2022/08/12 14:50:59;;;;;;;3.85;2.65;;;43.10;99.90;;;;;;5033925;28;20032;-80
2022/08/12 14:53:26;;;;;;;2.78;2.20;;;43.00;99.90;;;;;;5033813;28;20031;-79